Time;durP1;ratioP1;P1;durP2;ratioP2;P2;SDS_P1;SDS_P2;PMS_P1;PMS_P2;Temp;Humidity;BMP_temperature;BMP_pressure;BME280_temperature;BME280_humidity;BME280_pressure;Samples;Min_cycle;Max_cycle;Signal;HPM_P1;HPM_P2
2021/10/14 00:00:19;;;;;;;10.60;6.20;;;;;;;6.44;85.52;97217.69;4999086;28;20207;-72
2021/10/14 00:02:45;;;;;;;12.07;6.27;;;;;;;6.17;85.54;97223.47;4998951;28;20202;-72
2021/10/14 00:05:12;;;;;;;10.77;6.00;;;;;;;6.26;84.88;97220.06;4998521;28;20227;-72
2021/10/14 00:07:39;;;;;;;12.40;5.70;;;;;;;6.48;84.78;97219.94;4995313;28;20219;-72
2021/10/14 00:10:06;;;;;;;12.83;6.13;;;;;;;6.45;85.01;97222.81;4999156;28;20206;-72
2021/10/14 00:12:33;;;;;;;11.80;5.87;;;;;;;6.31;85.13;97220.53;4999121;28;20203;-72
2021/10/14 00:15:01;;;;;;;11.13;5.53;;;;;;;6.45;85.71;97221.97;4998489;28;20235;-72
2021/10/14 00:17:28;;;;;;;10.93;5.67;;;;;;;6.42;85.53;97230.91;4997212;28;20755;-72
2021/10/14 00:19:55;;;;;;;11.60;5.63;;;;;;;6.43;85.50;97237.81;4998623;28;20202;-73
2021/10/14 00:22:21;;;;;;;11.27;5.73;;;;;;;6.33;85.81;97228.25;4998865;28;20206;-72
2021/10/14 00:24:48;;;;;;;12.33;6.30;;;;;;;6.14;87.10;97233.34;4997789;28;20223;-72
2021/10/14 00:27:14;;;;;;;9.90;5.07;;;;;;;6.10;86.49;97232.75;4997514;28;20222;-72
2021/10/14 00:29:41;;;;;;;9.73;5.47;;;;;;;5.99;86.44;97237.19;4998593;28;20207;-72
2021/10/14 00:32:08;;;;;;;11.17;5.60;;;;;;;6.26;86.30;97233.16;4997897;28;20213;-72
2021/10/14 00:34:35;;;;;;;9.17;5.33;;;;;;;6.06;86.81;97231.34;4998090;28;21150;-72
2021/10/14 00:37:02;;;;;;;11.77;5.53;;;;;;;6.14;86.71;97231.53;4997068;28;20206;-72
2021/10/14 00:39:28;;;;;;;13.43;6.37;;;;;;;6.12;87.05;97232.63;4998341;28;20674;-73
2021/10/14 00:41:55;;;;;;;9.80;5.50;;;;;;;6.16;86.25;97234.03;4998404;28;20233;-72
2021/10/14 00:44:21;;;;;;;10.77;5.80;;;;;;;6.12;85.83;97230.84;4998329;28;20738;-72
2021/10/14 00:46:52;;;;;;;12.17;5.40;;;;;;;6.16;85.13;97228.78;4997192;28;20602;-72
2021/10/14 00:49:20;;;;;;;10.43;5.17;;;;;;;6.15;84.83;97224.53;4997341;28;20233;-72
2021/10/14 00:51:47;;;;;;;11.53;5.37;;;;;;;5.76;86.16;97227.78;4997896;28;20214;-72
2021/10/14 00:54:18;;;;;;;10.10;5.07;;;;;;;5.99;85.90;97229.34;4997866;28;20226;-72
2021/10/14 00:56:45;;;;;;;14.90;5.73;;;;;;;6.17;86.26;97235.69;4997096;28;21397;-72
2021/10/14 00:59:14;;;;;;;10.90;5.80;;;;;;;6.26;85.72;97227.94;4997706;28;20203;-72
2021/10/14 01:01:40;;;;;;;12.77;5.77;;;;;;;6.06;85.13;97233.16;4997973;28;20237;-72
2021/10/14 01:04:07;;;;;;;9.97;5.67;;;;;;;6.07;84.28;97234.78;4997264;28;20226;-72
2021/10/14 01:06:35;;;;;;;12.03;5.73;;;;;;;6.19;84.93;97246.88;4994210;28;20979;-72
2021/10/14 01:09:01;;;;;;;9.47;5.50;;;;;;;5.96;85.38;97234.00;4997970;28;20209;-72
2021/10/14 01:11:29;;;;;;;9.23;4.90;;;;;;;6.00;84.21;97231.03;4997335;28;20199;-72
2021/10/14 01:13:55;;;;;;;9.83;5.27;;;;;;;5.77;84.13;97223.38;4997678;28;20217;-72
2021/10/14 01:16:22;;;;;;;10.20;5.00;;;;;;;5.68;84.44;97226.72;4997120;28;20753;-72
2021/10/14 01:18:48;;;;;;;9.17;5.20;;;;;;;5.78;84.43;97219.78;4997156;28;20588;-72
2021/10/14 01:21:17;;;;;;;9.83;5.47;;;;;;;5.97;84.43;97220.81;4997119;28;20210;-72
2021/10/14 01:23:43;;;;;;;10.03;5.53;;;;;;;5.77;85.20;97229.44;4998813;28;20697;-72
2021/10/14 01:26:10;;;;;;;10.23;5.60;;;;;;;5.97;84.43;97230.44;4996718;28;20233;-72
2021/10/14 01:28:36;;;;;;;9.60;5.63;;;;;;;5.86;85.54;97225.25;4996512;28;20226;-72
2021/10/14 01:31:03;;;;;;;13.13;6.10;;;;;;;6.01;85.84;97227.47;4997878;28;20217;-72
2021/10/14 01:33:30;;;;;;;12.70;6.10;;;;;;;6.01;85.44;97222.22;4997371;28;20225;-72
2021/10/14 01:35:57;;;;;;;14.20;6.10;;;;;;;5.90;84.74;97218.81;4995894;28;20277;-72
2021/10/14 01:38:25;;;;;;;14.03;5.57;;;;;;;5.92;85.43;97219.50;4997578;28;20207;-71
2021/10/14 01:40:51;;;;;;;9.13;5.57;;;;;;;5.66;85.37;97220.75;4996763;28;20210;-72
2021/10/14 01:43:18;;;;;;;11.70;5.63;;;;;;;5.77;85.35;97226.00;4996839;28;20202;-72
2021/10/14 01:45:44;;;;;;;13.63;6.10;;;;;;;5.75;85.69;97228.72;4996408;28;20222;-72
2021/10/14 01:48:11;;;;;;;15.10;6.70;;;;;;;5.86;85.92;97222.66;4996418;28;20222;-72
2021/10/14 01:50:37;;;;;;;13.87;6.37;;;;;;;5.90;86.46;97214.41;4997097;28;21127;-72
2021/10/14 01:53:04;;;;;;;12.70;6.60;;;;;;;5.77;86.00;97218.97;4997156;28;20217;-72
2021/10/14 01:55:31;;;;;;;10.37;5.13;;;;;;;5.78;86.14;97215.41;4996696;28;20222;-72
2021/10/14 01:57:58;;;;;;;9.20;5.43;;;;;;;5.69;84.53;97218.75;4996873;28;20209;-72
2021/10/14 02:00:25;;;;;;;12.87;5.50;;;;;;;5.56;84.86;97222.44;4996722;28;20206;-72
2021/10/14 02:02:51;;;;;;;12.27;5.90;;;;;;;5.55;85.69;97226.88;4997154;28;20206;-72
2021/10/14 02:05:18;;;;;;;12.40;6.07;;;;;;;5.65;85.20;97232.16;4996751;28;20272;-72
2021/10/14 02:07:44;;;;;;;12.10;6.10;;;;;;;5.77;85.22;97218.97;4993482;28;20226;-72
2021/10/14 02:10:11;;;;;;;13.30;6.30;;;;;;;5.72;85.40;97207.22;4996847;28;20996;-72
2021/10/14 02:12:39;;;;;;;12.30;6.63;;;;;;;5.91;85.05;97205.63;4996724;28;20214;-72
2021/10/14 02:15:06;;;;;;;12.83;5.53;;;;;;;5.85;84.45;97206.09;4992858;28;20253;-72
2021/10/14 02:17:32;;;;;;;11.83;6.63;;;;;;;5.74;85.22;97206.13;4995947;28;20195;-72
2021/10/14 02:19:59;;;;;;;15.70;6.87;;;;;;;5.60;86.32;97206.41;4997094;28;20640;-72
2021/10/14 02:22:25;;;;;;;15.03;6.83;;;;;;;5.63;86.42;97203.53;4996762;28;20207;-72
2021/10/14 02:24:52;;;;;;;15.20;6.97;;;;;;;5.68;86.47;97208.41;4996777;28;20233;-72
2021/10/14 02:27:18;;;;;;;11.67;6.67;;;;;;;5.72;86.52;97218.47;4996119;28;20230;-72
2021/10/14 02:29:46;;;;;;;14.97;7.30;;;;;;;5.97;86.86;97220.81;4996113;28;20213;-72
2021/10/14 02:32:12;;;;;;;15.50;7.23;;;;;;;5.84;86.85;97212.31;4996582;28;20202;-72
2021/10/14 02:34:39;;;;;;;14.53;7.20;;;;;;;5.91;86.60;97210.03;4997422;28;20230;-72
2021/10/14 02:37:05;;;;;;;13.80;7.13;;;;;;;5.79;86.63;97205.78;4995690;28;20199;-72
2021/10/14 02:39:32;;;;;;;13.13;6.87;;;;;;;5.67;87.24;97207.56;4996548;28;20203;-72
2021/10/14 02:41:58;;;;;;;15.60;7.27;;;;;;;5.73;87.14;97196.63;5001006;28;20203;-72
2021/10/14 02:44:25;;;;;;;11.30;6.30;;;;;;;5.85;87.21;97195.63;5000310;28;21049;-72
2021/10/14 02:46:53;;;;;;;14.90;7.07;;;;;;;6.01;87.31;97189.97;4999225;28;20206;-72
2021/10/14 02:49:20;;;;;;;13.00;6.57;;;;;;;5.87;87.27;97195.50;4999527;28;20261;-72
2021/10/14 02:51:47;;;;;;;16.67;7.57;;;;;;;5.90;87.32;97197.91;5000491;28;20195;-72
2021/10/14 02:54:13;;;;;;;17.10;7.37;;;;;;;5.95;87.04;97206.19;4999880;28;20718;-72
2021/10/14 02:56:40;;;;;;;13.83;6.70;;;;;;;5.74;87.66;97207.91;4998980;28;20206;-72
2021/10/14 02:59:06;;;;;;;15.27;7.20;;;;;;;5.79;87.19;97205.78;4999521;28;20199;-72
2021/10/14 03:01:33;;;;;;;13.60;7.03;;;;;;;5.84;86.63;97207.09;4999950;28;20639;-72
2021/10/14 03:04:00;;;;;;;13.47;7.00;;;;;;;5.95;86.45;97200.97;4999875;28;20412;-72
2021/10/14 03:06:27;;;;;;;15.27;7.57;;;;;;;5.70;86.37;97196.03;4996369;28;20213;-71
2021/10/14 03:08:53;;;;;;;17.50;7.63;;;;;;;5.72;86.77;97200.19;5000030;28;20226;-72
2021/10/14 03:11:20;;;;;;;14.10;6.73;;;;;;;5.75;86.72;97194.72;4999659;28;20214;-72
2021/10/14 03:13:46;;;;;;;16.77;6.83;;;;;;;5.79;86.87;97205.78;4999198;28;20705;-72
2021/10/14 03:16:13;;;;;;;18.53;6.97;;;;;;;5.80;86.91;97202.22;4999154;28;21080;-72
2021/10/14 03:18:39;;;;;;;16.57;7.73;;;;;;;5.71;87.74;97208.16;4999755;28;20198;-72
2021/10/14 03:21:07;;;;;;;18.87;7.40;;;;;;;6.07;87.61;97204.22;4999372;28;20206;-72
2021/10/14 03:23:34;;;;;;;22.13;8.73;;;;;;;5.96;87.35;97213.06;4999825;28;20202;-72
2021/10/14 03:26:02;;;;;;;23.40;9.73;;;;;;;5.98;87.65;97219.03;4998917;28;20226;-72
2021/10/14 03:28:29;;;;;;;21.50;9.63;;;;;;;5.95;87.92;97224.50;4998912;28;20229;-72
2021/10/14 03:30:55;;;;;;;22.20;8.87;;;;;;;5.86;88.03;97227.88;4999436;28;20210;-72
2021/10/14 03:33:21;;;;;;;17.97;8.60;;;;;;;5.91;88.62;97221.31;4998931;28;20208;-72
2021/10/14 03:35:48;;;;;;;20.83;9.30;;;;;;;5.96;88.33;97226.16;4998573;28;20238;-72
2021/10/14 03:38:16;;;;;;;25.67;9.40;;;;;;;6.17;89.54;97226.06;5000016;28;20210;-72
2021/10/14 03:40:42;;;;;;;21.87;9.40;;;;;;;6.00;89.27;97224.97;4998577;28;20202;-72
2021/10/14 03:43:09;;;;;;;20.07;8.27;;;;;;;6.19;89.22;97211.06;4998957;28;20206;-72
2021/10/14 03:45:36;;;;;;;21.97;9.40;;;;;;;6.21;89.44;97221.38;4998622;28;21145;-72
2021/10/14 03:48:02;;;;;;;18.73;8.97;;;;;;;6.18;89.38;97214.63;4999984;28;20632;-72
2021/10/14 03:50:29;;;;;;;18.97;8.97;;;;;;;6.20;89.93;97210.09;4996534;28;20202;-72
2021/10/14 03:52:55;;;;;;;20.27;8.97;;;;;;;6.22;89.63;97205.59;4997390;28;20745;-72
2021/10/14 03:55:23;;;;;;;23.57;8.33;;;;;;;6.45;89.01;97212.31;4999399;28;20230;-71
2021/10/14 03:57:50;;;;;;;23.20;8.83;;;;;;;6.19;88.98;97213.69;4999130;28;20229;-71
2021/10/14 04:00:17;;;;;;;21.97;8.93;;;;;;;6.31;88.81;97211.81;4998462;28;20210;-71
2021/10/14 04:02:43;;;;;;;23.77;9.10;;;;;;;6.22;87.83;97210.81;4998752;28;21067;-71
2021/10/14 04:05:10;;;;;;;19.97;8.27;;;;;;;6.16;88.40;97216.56;4999154;28;20230;-71
2021/10/14 04:07:37;;;;;;;25.77;9.07;;;;;;;6.11;87.74;97210.88;4995826;28;20226;-71
2021/10/14 04:10:04;;;;;;;19.87;8.93;;;;;;;6.18;88.05;97209.38;4998874;28;20207;-71
2021/10/14 04:12:32;;;;;;;17.43;8.70;;;;;;;6.10;88.25;97217.06;4998924;28;20198;-71
2021/10/14 04:14:59;;;;;;;20.73;9.03;;;;;;;6.00;87.71;97215.31;4998234;28;20230;-71
2021/10/14 04:17:25;;;;;;;26.67;9.90;;;;;;;5.94;88.61;97215.00;4997721;28;20214;-71
2021/10/14 04:19:52;;;;;;;22.87;9.17;;;;;;;5.87;89.10;97217.28;4999096;28;20211;-71
2021/10/14 04:22:19;;;;;;;22.03;8.30;;;;;;;6.10;88.84;97216.22;4998581;28;20218;-71
2021/10/14 04:24:47;;;;;;;21.33;8.87;;;;;;;6.19;88.65;97221.53;4997820;28;21314;-71
2021/10/14 04:27:14;;;;;;;23.10;9.20;;;;;;;6.25;88.91;97215.78;4997164;28;20588;-71
2021/10/14 04:29:41;;;;;;;20.37;9.13;;;;;;;6.36;88.47;97218.34;4997940;28;20199;-71
2021/10/14 04:32:10;;;;;;;20.63;9.10;;;;;;;6.38;88.67;97226.91;4997997;28;20209;-70
2021/10/14 04:34:37;;;;;;;26.00;9.80;;;;;;;6.43;88.86;97227.34;4998122;28;20312;-70
2021/10/14 04:37:05;;;;;;;24.37;10.70;;;;;;;6.35;88.37;97224.56;4997990;28;20206;-70
2021/10/14 04:39:31;;;;;;;23.93;10.80;;;;;;;6.32;88.75;97231.81;4997881;28;20265;-70
2021/10/14 04:41:58;;;;;;;26.97;10.50;;;;;;;6.33;88.82;97231.69;4998257;28;20213;-70
2021/10/14 04:44:25;;;;;;;23.73;10.50;;;;;;;6.43;88.71;97223.88;4998072;28;20230;-70
2021/10/14 04:46:52;;;;;;;24.17;9.50;;;;;;;6.57;89.36;97224.41;4996785;28;20206;-70
2021/10/14 04:49:19;;;;;;;20.80;9.77;;;;;;;6.39;89.24;97222.47;4998150;28;20234;-70
2021/10/14 04:51:45;;;;;;;19.63;9.50;;;;;;;6.30;89.25;97223.25;4998339;28;20207;-70
2021/10/14 04:54:12;;;;;;;20.03;9.30;;;;;;;6.33;89.19;97223.84;4997613;28;20222;-70
2021/10/14 04:56:38;;;;;;;22.27;9.43;;;;;;;6.26;90.22;97222.69;4997542;28;20526;-70
2021/10/14 04:59:05;;;;;;;20.97;9.30;;;;;;;6.35;90.50;97221.94;4998997;28;20206;-70
2021/10/14 05:01:31;;;;;;;18.37;9.40;;;;;;;6.47;90.00;97220.91;4997753;28;20207;-70
2021/10/14 05:03:59;;;;;;;19.10;9.37;;;;;;;6.58;90.86;97225.22;4997204;28;20206;-70
2021/10/14 05:06:26;;;;;;;19.70;9.10;;;;;;;6.49;90.40;97224.22;4995418;28;20218;-70
2021/10/14 05:08:52;;;;;;;29.13;12.47;;;;;;;6.44;90.58;97228.16;4997838;28;20253;-71
2021/10/14 05:11:19;;;;;;;22.80;11.23;;;;;;;6.53;89.98;97223.00;4997095;28;20256;-70
2021/10/14 05:13:45;;;;;;;18.73;9.10;;;;;;;6.69;90.17;97224.22;4998195;28;20198;-70
2021/10/14 05:16:11;;;;;;;18.17;8.97;;;;;;;6.70;89.76;97228.47;4996867;28;20214;-71
2021/10/14 05:18:38;;;;;;;21.23;10.40;;;;;;;6.69;90.32;97234.69;4996781;28;20202;-70
2021/10/14 05:21:06;;;;;;;19.83;10.47;;;;;;;6.85;89.95;97232.41;4997149;28;20210;-70
2021/10/14 05:23:32;;;;;;;23.77;10.47;;;;;;;6.81;89.74;97236.25;4997470;28;20203;-71
2021/10/14 05:25:59;;;;;;;30.17;13.67;;;;;;;6.72;89.80;97238.81;4996244;28;20226;-70
2021/10/14 05:28:25;;;;;;;23.03;11.30;;;;;;;6.77;90.00;97231.41;4997376;28;20233;-70
2021/10/14 05:30:51;;;;;;;27.87;11.23;;;;;;;6.76;89.99;97243.69;4997608;28;20202;-70
2021/10/14 05:33:18;;;;;;;23.67;11.27;;;;;;;6.58;91.33;97243.56;4997148;28;20207;-70
2021/10/14 05:35:45;;;;;;;24.23;11.23;;;;;;;6.74;90.62;97239.53;4996539;28;20234;-71
2021/10/14 05:38:13;;;;;;;22.83;10.90;;;;;;;6.85;90.69;97236.84;4997419;28;20706;-70
2021/10/14 05:40:39;;;;;;;24.43;11.23;;;;;;;6.72;90.49;97237.03;4997136;28;20585;-71
2021/10/14 05:43:06;;;;;;;23.27;11.00;;;;;;;6.97;89.90;97241.03;4996803;28;20222;-70
2021/10/14 05:45:32;;;;;;;23.00;11.33;;;;;;;6.85;90.90;97244.69;4996793;28;20226;-71
2021/10/14 05:47:59;;;;;;;21.67;10.33;;;;;;;6.80;91.08;97246.88;4997498;28;20613;-71
2021/10/14 05:50:25;;;;;;;19.97;10.30;;;;;;;6.89;90.31;97240.84;4996514;28;20210;-70
2021/10/14 05:52:51;;;;;;;23.07;10.53;;;;;;;6.85;89.59;97242.91;4997258;28;20221;-71
2021/10/14 05:55:19;;;;;;;19.50;10.03;;;;;;;7.13;90.51;97238.72;4997414;28;20222;-70
2021/10/14 05:57:46;;;;;;;20.97;10.07;;;;;;;6.94;88.87;97236.88;4995372;28;20206;-70
2021/10/14 06:00:14;;;;;;;20.07;10.40;;;;;;;7.13;89.34;97230.88;4997130;28;20210;-70
2021/10/14 06:02:41;;;;;;;22.27;10.00;;;;;;;6.99;89.40;97239.13;4996446;28;20206;-70
2021/10/14 06:05:08;;;;;;;20.03;10.37;;;;;;;7.12;88.83;97239.72;4996452;28;20241;-70
2021/10/14 06:07:35;;;;;;;19.23;9.97;;;;;;;6.90;88.89;97240.72;4992510;28;20199;-71
2021/10/14 06:10:01;;;;;;;18.57;9.50;;;;;;;6.92;89.16;97248.44;4997251;28;20222;-70
2021/10/14 06:12:29;;;;;;;25.13;9.70;;;;;;;6.77;90.30;97241.88;4996864;28;20218;-71
2021/10/14 06:14:55;;;;;;;21.03;10.30;;;;;;;6.84;89.72;97248.28;4997271;28;20261;-71
2021/10/14 06:17:22;;;;;;;22.07;10.23;;;;;;;6.89;89.90;97248.72;5000081;28;20977;-71
2021/10/14 06:19:48;;;;;;;18.30;9.73;;;;;;;6.89;89.50;97246.91;5000964;28;20210;-71
2021/10/14 06:22:15;;;;;;;19.20;10.37;;;;;;;6.93;89.34;97256.16;5000494;28;20206;-71
2021/10/14 06:24:41;;;;;;;20.30;10.13;;;;;;;6.98;89.11;97247.94;5001288;28;20222;-71
2021/10/14 06:27:08;;;;;;;20.23;9.93;;;;;;;7.05;88.74;97249.91;5000246;28;20237;-71
2021/10/14 06:29:35;;;;;;;21.90;10.40;;;;;;;7.39;88.34;97243.41;5000798;28;20769;-71
2021/10/14 06:32:02;;;;;;;17.47;8.70;;;;;;;7.24;88.40;97252.56;5000208;28;20214;-71
2021/10/14 06:34:28;;;;;;;17.73;8.93;;;;;;;7.07;89.22;97252.38;5000359;28;20594;-71
2021/10/14 06:36:55;;;;;;;21.67;9.37;;;;;;;7.23;89.31;97263.19;4999397;28;20679;-71
2021/10/14 06:39:21;;;;;;;18.07;9.47;;;;;;;7.32;88.33;97258.84;5000768;28;20210;-71
2021/10/14 06:41:48;;;;;;;22.13;9.90;;;;;;;7.34;89.05;97259.53;5000439;28;20211;-71
2021/10/14 06:44:14;;;;;;;21.63;9.03;;;;;;;8.11;93.64;97258.75;5000175;28;20239;-71
2021/10/14 06:46:42;;;;;;;18.40;7.30;;;;;;;8.00;91.53;97257.03;4999983;28;20232;-71
2021/10/14 06:49:08;;;;;;;22.67;10.70;;;;;;;8.09;86.60;97263.28;4999719;28;20226;-70
2021/10/14 06:51:35;;;;;;;21.47;9.40;;;;;;;7.51;86.74;97265.91;5000236;28;20198;-71
2021/10/14 06:54:01;;;;;;;21.07;9.37;;;;;;;7.36;86.74;97265.47;5000314;28;20206;-71
2021/10/14 06:56:28;;;;;;;27.63;10.53;;;;;;;7.28;88.97;97272.34;4999014;28;20195;-71
2021/10/14 06:58:54;;;;;;;27.67;11.10;;;;;;;7.34;88.10;97269.19;4999657;28;20202;-70
2021/10/14 07:01:21;;;;;;;18.37;8.83;;;;;;;7.18;88.44;97265.38;4999595;28;20218;-71
2021/10/14 07:03:48;;;;;;;24.80;10.67;;;;;;;7.47;89.57;97261.91;5000031;28;20205;-71
2021/10/14 07:06:15;;;;;;;27.00;11.47;;;;;;;7.61;88.36;97259.75;4996205;28;20234;-71
2021/10/14 07:08:42;;;;;;;37.67;14.30;;;;;;;7.70;88.64;97260.72;4999616;28;20781;-71
2021/10/14 07:11:09;;;;;;;34.50;15.17;;;;;;;7.93;88.28;97260.38;5000061;28;20209;-71
2021/10/14 07:13:36;;;;;;;25.43;9.93;;;;;;;7.85;87.87;97260.19;4999902;28;20720;-70
2021/10/14 07:16:03;;;;;;;21.23;10.67;;;;;;;7.76;88.47;97257.56;4998918;28;20234;-71
2021/10/14 07:18:29;;;;;;;20.10;9.17;;;;;;;7.76;88.60;97258.41;4999573;28;20194;-71
2021/10/14 07:20:57;;;;;;;22.17;10.03;;;;;;;7.84;88.96;97255.94;5000031;28;20210;-70
2021/10/14 07:23:24;;;;;;;24.40;10.53;;;;;;;7.95;87.91;97268.94;4999717;28;20706;-71
2021/10/14 07:25:50;;;;;;;20.87;10.03;;;;;;;8.12;88.42;97260.38;4998618;28;20226;-71
2021/10/14 07:28:17;;;;;;;22.93;10.20;;;;;;;7.93;88.24;97263.00;4998870;28;20206;-71
2021/10/14 07:30:43;;;;;;;25.67;10.43;;;;;;;8.16;87.91;97261.78;4999370;28;20209;-70
2021/10/14 07:33:10;;;;;;;22.27;10.83;;;;;;;8.16;88.68;97265.25;4999701;28;20207;-71
2021/10/14 07:35:41;;;;;;;25.40;10.87;;;;;;;8.40;88.29;97267.47;4998770;28;20226;-71
2021/10/14 07:38:10;;;;;;;20.97;10.10;;;;;;;8.74;86.90;97262.44;4998639;28;20678;-71
2021/10/14 07:40:39;;;;;;;23.23;10.57;;;;;;;8.48;87.38;97267.59;4998835;28;20242;-71
2021/10/14 07:43:06;;;;;;;18.50;8.87;;;;;;;8.09;88.42;97271.97;4999597;28;20217;-70
2021/10/14 07:45:33;;;;;;;18.93;9.90;;;;;;;8.40;87.75;97275.34;4997655;28;20222;-71
2021/10/14 07:47:59;;;;;;;22.23;10.30;;;;;;;8.72;87.71;97271.47;4998285;28;20230;-71
2021/10/14 07:50:26;;;;;;;21.83;10.27;;;;;;;8.70;87.42;97274.19;4997662;28;21482;-71
2021/10/14 07:52:52;;;;;;;22.50;9.50;;;;;;;9.01;87.16;97270.41;4997190;28;20253;-71
2021/10/14 07:55:20;;;;;;;23.47;9.63;;;;;;;9.60;85.98;97273.50;4998246;28;20233;-71
2021/10/14 07:57:47;;;;;;;17.10;7.67;;;;;;;8.78;85.95;97273.50;4997484;28;20202;-71
2021/10/14 08:00:15;;;;;;;15.67;7.40;;;;;;;8.51;86.55;97279.50;4997906;28;20206;-70
2021/10/14 08:02:41;;;;;;;16.47;7.23;;;;;;;8.10;87.81;97272.81;4997841;28;20205;-70
2021/10/14 08:05:09;;;;;;;18.33;9.03;;;;;;;8.27;89.00;97275.59;4998006;28;21019;-71
2021/10/14 08:07:36;;;;;;;18.70;9.90;;;;;;;8.52;88.71;97281.13;4993901;28;20229;-70
2021/10/14 08:10:03;;;;;;;18.83;9.30;;;;;;;8.57;87.68;97278.91;4998216;28;20559;-70
2021/10/14 08:12:31;;;;;;;20.90;9.17;;;;;;;8.99;86.52;97274.97;4998073;28;20207;-70
2021/10/14 08:14:58;;;;;;;16.10;7.43;;;;;;;8.63;87.01;97282.78;4997747;28;20230;-70
2021/10/14 08:17:24;;;;;;;21.43;8.80;;;;;;;8.69;87.10;97274.34;4996993;28;20206;-70
2021/10/14 08:19:51;;;;;;;15.07;7.17;;;;;;;8.73;86.31;97281.81;4998137;28;20202;-71
2021/10/14 08:22:17;;;;;;;19.93;8.57;;;;;;;8.75;88.14;97277.25;4998348;28;20428;-71
2021/10/14 08:24:45;;;;;;;25.73;9.93;;;;;;;8.83;86.96;97281.78;4997217;28;20237;-71
2021/10/14 08:27:12;;;;;;;22.03;8.63;;;;;;;9.15;86.72;97280.47;4996299;28;20990;-70
2021/10/14 08:29:40;;;;;;;15.27;7.67;;;;;;;9.28;86.22;97279.19;4997974;28;20234;-71
2021/10/14 08:32:07;;;;;;;13.00;7.03;;;;;;;9.22;86.25;97278.94;4997930;28;20206;-70
2021/10/14 08:34:34;;;;;;;16.93;7.43;;;;;;;9.14;86.39;97284.09;4997416;28;20750;-71
2021/10/14 08:37:01;;;;;;;18.10;7.77;;;;;;;9.41;85.63;97271.78;4997028;28;20202;-70
2021/10/14 08:39:27;;;;;;;15.97;7.23;;;;;;;9.08;86.21;97274.13;4996997;28;20676;-71
2021/10/14 08:41:54;;;;;;;15.53;7.37;;;;;;;9.07;85.69;97272.47;4997400;28;20210;-70
2021/10/14 08:44:25;;;;;;;15.07;7.73;;;;;;;9.57;84.86;97260.63;4997628;28;20710;-71
2021/10/14 08:46:54;;;;;;;14.10;7.83;;;;;;;9.93;84.97;97261.41;4996449;28;20532;-71
2021/10/14 08:49:21;;;;;;;14.43;6.57;;;;;;;9.46;84.99;97263.47;4996788;28;20694;-71
2021/10/14 08:51:48;;;;;;;17.50;7.43;;;;;;;9.66;83.93;97263.25;4997978;28;20571;-71
2021/10/14 08:54:14;;;;;;;14.53;7.87;;;;;;;9.86;83.75;97265.63;4996631;28;20227;-71
2021/10/14 08:56:43;;;;;;;15.07;7.80;;;;;;;10.35;82.94;97265.97;4996350;28;20250;-71
2021/10/14 08:59:12;;;;;;;16.37;6.97;;;;;;;10.02;82.39;97265.00;4996965;28;20671;-71
2021/10/14 09:01:40;;;;;;;14.57;7.70;;;;;;;9.68;84.21;97264.72;4997781;28;20268;-70
2021/10/14 09:04:15;;;;;;;21.53;7.60;;;;;;;9.95;83.20;97267.38;4996743;28;20202;-70
2021/10/14 09:06:42;;;;;;;16.13;7.50;;;;;;;9.87;83.14;97269.88;4992877;28;20205;-71
2021/10/14 09:09:08;;;;;;;15.67;7.43;;;;;;;9.66;83.22;97268.50;4997107;28;20230;-70
2021/10/14 09:11:35;;;;;;;12.97;7.20;;;;;;;9.70;83.79;97265.41;4997342;28;20202;-71
2021/10/14 09:14:04;;;;;;;14.10;7.93;;;;;;;10.28;82.39;97264.09;4996863;28;20869;-71
2021/10/14 09:16:33;;;;;;;11.07;4.93;;;;;;;10.06;82.44;97254.00;4995975;28;20214;-71
2021/10/14 09:19:16;;;;;;;11.87;4.90;;;;;;;10.49;80.58;97264.63;4996909;28;20211;-71
2021/10/14 09:21:46;;;;;;;14.43;7.97;;;;;;;10.56;82.60;97258.56;4997018;28;20202;-71
2021/10/14 09:24:30;;;;;;;21.60;8.27;;;;;;;10.77;80.08;97259.09;4996644;28;20598;-71
2021/10/14 09:26:58;;;;;;;13.63;7.27;;;;;;;10.51;80.36;97255.59;4996184;28;20272;-71
2021/10/14 09:29:27;;;;;;;16.30;8.47;;;;;;;10.49;80.90;97259.38;4996082;28;20237;-70
2021/10/14 09:31:57;;;;;;;15.37;8.70;;;;;;;10.74;80.97;97251.47;4996043;28;20293;-71
2021/10/14 09:34:30;;;;;;;16.63;8.37;;;;;;;10.92;80.05;97249.66;4996648;28;20765;-71
2021/10/14 09:36:57;;;;;;;17.87;8.50;;;;;;;10.50;78.99;97242.53;4995962;28;20218;-71
2021/10/14 09:39:23;;;;;;;13.33;6.13;;;;;;;10.41;79.04;97248.72;4995894;28;20203;-71
2021/10/14 09:41:51;;;;;;;14.80;7.53;;;;;;;10.61;78.99;97242.31;4997042;28;20217;-71
2021/10/14 09:44:19;;;;;;;18.20;8.40;;;;;;;10.80;78.97;97250.88;4996107;28;20226;-71
2021/10/14 09:46:48;;;;;;;17.17;7.97;;;;;;;10.70;78.74;97251.94;4996231;28;20202;-71
2021/10/14 09:49:21;;;;;;;15.60;7.10;;;;;;;11.03;78.65;97242.28;4995490;28;20210;-71
2021/10/14 09:51:51;;;;;;;14.83;7.40;;;;;;;11.21;77.27;97242.22;4996128;28;20210;-71
2021/10/14 09:54:18;;;;;;;15.67;6.40;;;;;;;10.84;78.03;97251.38;4996075;28;20295;-71
2021/10/14 09:56:45;;;;;;;13.93;6.40;;;;;;;10.90;78.01;97245.50;4996370;28;20202;-71
2021/10/14 09:59:11;;;;;;;20.47;8.47;;;;;;;11.43;76.96;97245.16;4996104;28;20206;-70
2021/10/14 10:01:41;;;;;;;15.00;8.30;;;;;;;11.78;78.12;97237.91;4996082;28;20750;-71
2021/10/14 10:04:08;;;;;;;15.23;8.53;;;;;;;11.78;77.19;97243.19;4996461;28;20274;-71
2021/10/14 10:06:37;;;;;;;17.40;7.87;;;;;;;11.96;76.32;97243.88;4993514;28;20202;-71
2021/10/14 10:09:11;;;;;;;16.67;8.40;;;;;;;12.24;76.81;97243.47;4995727;28;20587;-71
2021/10/14 10:11:42;;;;;;;14.80;7.93;;;;;;;12.09;75.06;97238.16;4996655;28;20206;-71
2021/10/14 10:14:09;;;;;;;17.67;8.40;;;;;;;12.42;75.46;97236.22;4996018;28;20675;-71
2021/10/14 10:16:36;;;;;;;15.40;7.33;;;;;;;12.40;73.56;97238.19;4995487;28;20217;-71
2021/10/14 10:19:04;;;;;;;13.37;7.03;;;;;;;12.17;73.99;97229.25;4996470;28;20217;-71
2021/10/14 10:21:44;;;;;;;13.53;6.57;;;;;;;12.30;72.34;97226.94;4996030;28;20496;-71
2021/10/14 10:24:32;;;;;;;13.60;7.30;;;;;;;12.75;74.76;97226.47;4996063;28;20230;-71
2021/10/14 10:27:01;;;;;;;13.53;7.10;;;;;;;12.71;73.77;97219.88;4995453;28;20342;-71
2021/10/14 10:29:44;;;;;;;17.33;7.60;;;;;;;13.18;71.05;97214.53;4995650;28;20389;-71
2021/10/14 10:32:24;;;;;;;13.53;7.27;;;;;;;12.53;71.48;97222.66;4995071;28;20306;-71
2021/10/14 10:34:55;;;;;;;13.50;7.00;;;;;;;12.83;70.27;97216.72;4995992;28;20258;-71
2021/10/14 10:37:30;;;;;;;15.70;7.60;;;;;;;12.79;71.17;97218.88;4994693;28;20216;-71
2021/10/14 10:40:01;;;;;;;12.03;6.97;;;;;;;13.02;71.22;97208.44;4995849;28;20323;-71
2021/10/14 10:42:30;;;;;;;13.67;6.60;;;;;;;12.96;70.75;97203.84;4995905;28;20234;-71
2021/10/14 10:45:08;;;;;;;13.03;6.20;;;;;;;13.28;70.72;97204.56;4995990;28;20242;-71
2021/10/14 10:47:41;;;;;;;13.90;6.23;;;;;;;13.55;69.15;97191.72;4995115;28;20209;-71
2021/10/14 10:50:10;;;;;;;13.80;7.37;;;;;;;13.58;70.12;97188.75;4995420;28;20237;-71
2021/10/14 10:52:38;;;;;;;10.67;6.20;;;;;;;13.25;69.23;97188.19;4995523;28;20202;-71
2021/10/14 10:55:13;;;;;;;16.27;6.37;;;;;;;13.83;70.20;97182.31;4995612;28;20227;-71
2021/10/14 10:57:50;;;;;;;11.47;5.70;;;;;;;14.09;67.48;97186.34;4995779;28;20202;-71
2021/10/14 11:00:19;;;;;;;8.60;4.70;;;;;;;13.54;65.22;97192.75;4995547;28;20254;-71
2021/10/14 11:02:46;;;;;;;14.90;5.55;;;;;;;13.12;67.01;97190.56;4999132;28;20969;-70
2021/10/14 11:05:13;;;;;;;8.70;4.50;;;;;;;12.78;66.98;97190.75;4998867;28;20618;-71
2021/10/14 11:07:39;;;;;;;8.67;4.97;;;;;;;13.03;68.27;97188.94;4996610;28;20206;-71
2021/10/14 11:10:07;;;;;;;5.87;3.60;;;;;;;13.16;65.86;97174.19;4998849;28;20230;-71
2021/10/14 11:12:35;;;;;;;9.13;4.60;;;;;;;13.08;65.94;97173.38;4998841;28;20474;-71
2021/10/14 11:15:14;;;;;;;5.90;2.67;;;;;;;13.30;65.77;97170.84;4999087;28;20245;-71
2021/10/14 11:17:41;;;;;;;9.77;4.57;;;;;;;13.08;66.43;97171.53;4998985;28;20226;-71
2021/10/14 11:20:08;;;;;;;6.53;3.43;;;;;;;13.08;64.18;97168.06;4998999;28;20211;-71
2021/10/14 11:22:35;;;;;;;12.43;4.43;;;;;;;13.27;64.75;97175.63;4998949;28;20207;-71
2021/10/14 11:25:14;;;;;;;6.90;3.73;;;;;;;13.60;64.24;97170.84;4999178;28;20507;-71
2021/10/14 11:27:44;;;;;;;9.83;4.27;;;;;;;13.59;65.02;97171.88;4998175;28;20569;-71
2021/10/14 11:30:18;;;;;;;8.77;4.37;;;;;;;14.03;63.34;97175.59;4998611;28;20226;-71
2021/10/14 11:32:49;;;;;;;8.20;3.53;;;;;;;13.33;61.26;97170.47;4998440;28;20473;-71